createdAt,value
2022-10-19T00:07:39.000Z,21.70
2022-10-19T00:27:39.000Z,10.10
2022-10-19T00:37:39.000Z,8.60
2022-10-19T00:47:40.000Z,18.00
2022-10-19T00:57:40.000Z,23.50
2022-10-19T01:07:40.000Z,22.40
2022-10-19T01:17:41.000Z,24.40
2022-10-19T01:27:41.000Z,23.10
2022-10-19T01:37:41.000Z,28.00
2022-10-19T01:57:42.000Z,35.50
2022-10-19T02:07:42.000Z,30.40
2022-10-19T02:17:42.000Z,33.50
2022-10-19T02:27:43.000Z,35.70
2022-10-19T02:37:43.000Z,33.20
2022-10-19T02:47:43.000Z,28.80
2022-10-19T02:57:44.000Z,27.00
2022-10-19T03:07:44.000Z,23.00
2022-10-19T03:27:44.000Z,28.50
2022-10-19T03:37:45.000Z,30.00
2022-10-19T03:47:45.000Z,25.90
2022-10-19T03:57:45.000Z,21.90
2022-10-19T04:07:46.000Z,28.50
2022-10-19T04:38:04.000Z,26.20
2022-10-19T04:38:04.000Z,28.10
2022-10-19T04:48:04.000Z,23.70
2022-10-19T04:58:04.000Z,24.50
2022-10-19T05:08:04.000Z,21.90
2022-10-19T05:18:04.000Z,22.30
2022-10-19T05:28:05.000Z,21.90
2022-10-19T05:38:05.000Z,22.50
2022-10-19T05:48:05.000Z,26.90
2022-10-19T06:08:05.000Z,29.70
2022-10-19T06:18:06.000Z,29.30
2022-10-19T06:28:06.000Z,29.70
2022-10-19T06:38:06.000Z,31.40
2022-10-19T06:48:06.000Z,27.40
2022-10-19T08:26:54.000Z,11.50
2022-10-19T10:06:33.000Z,6.20
2022-10-19T10:06:33.000Z,5.90
2022-10-19T10:16:33.000Z,5.10
2022-10-19T14:27:54.000Z,2.90
2022-10-19T14:27:54.000Z,3.10
2022-10-19T14:37:54.000Z,3.70
2022-10-19T14:47:54.000Z,3.50
2022-10-19T14:57:54.000Z,3.20
2022-10-19T15:07:53.000Z,2.90
2022-10-19T15:17:53.000Z,2.90
2022-10-19T15:27:53.000Z,3.40
2022-10-19T15:37:53.000Z,3.10
2022-10-19T15:57:53.000Z,3.40
2022-10-19T16:07:53.000Z,3.40
2022-10-19T16:17:53.000Z,4.00
2022-10-19T16:27:53.000Z,5.60
2022-10-19T16:37:53.000Z,4.30
2022-10-19T16:47:53.000Z,6.50
2022-10-19T16:57:53.000Z,5.10
2022-10-19T17:07:53.000Z,4.30
2022-10-19T17:27:53.000Z,4.60
2022-10-19T17:37:53.000Z,4.90
2022-10-19T17:47:53.000Z,5.40
2022-10-19T17:57:54.000Z,5.40
2022-10-19T18:07:54.000Z,6.00
2022-10-19T18:17:54.000Z,6.20
2022-10-19T18:27:55.000Z,5.90
2022-10-19T18:37:55.000Z,11.80
2022-10-19T18:57:56.000Z,13.80
2022-10-19T19:07:56.000Z,14.90
2022-10-19T19:17:57.000Z,12.10
2022-10-19T19:27:57.000Z,8.50
2022-10-19T19:37:58.000Z,10.20
2022-10-19T19:47:59.000Z,14.00
2022-10-19T19:57:59.000Z,15.50
2022-10-19T20:08:00.000Z,17.20
2022-10-19T20:28:01.000Z,21.10
2022-10-19T20:38:02.000Z,21.00
2022-10-19T20:48:02.000Z,22.30
2022-10-19T20:58:03.000Z,22.90
2022-10-19T21:08:04.000Z,21.50
2022-10-19T21:18:04.000Z,23.50
2022-10-19T21:28:05.000Z,23.10
2022-10-19T21:38:06.000Z,20.00
2022-10-19T21:58:07.000Z,21.30
2022-10-19T22:08:08.000Z,21.70
2022-10-19T22:18:08.000Z,18.50
2022-10-19T22:28:09.000Z,20.40
2022-10-19T22:38:10.000Z,22.20
2022-10-19T22:48:10.000Z,22.50
2022-10-19T22:58:11.000Z,24.70
2022-10-19T23:08:12.000Z,21.80
2022-10-19T23:28:13.000Z,18.20
2022-10-19T23:38:13.000Z,22.00
2022-10-19T23:48:14.000Z,20.00
2022-10-19T23:58:15.000Z,19.20
